Time;durP1;ratioP1;P1;durP2;ratioP2;P2;SDS_P1;SDS_P2;PMS_P1;PMS_P2;Temp;Humidity;BMP_temperature;BMP_pressure;BME280_temperature;BME280_humidity;BME280_pressure;Samples;Min_cycle;Max_cycle;Signal;HPM_P1;HPM_P2
2022/12/13 00:00:40;;;;;;;;;;;-5.90;99.90;;;-7.24;100.00;96590.22;5066821;28;19911;-51
2022/12/13 00:03:06;;;;;;;;;;;-6.00;99.90;;;-7.26;100.00;96586.75;5071003;28;19912;-50
2022/12/13 00:05:32;;;;;;;;;;;-6.00;99.90;;;-7.27;100.00;96579.91;5066076;28;19947;-54
2022/12/13 00:08:00;;;;;;;;;;;-6.00;99.90;;;-7.28;100.00;96578.19;5065797;28;20351;-50
2022/12/13 00:10:26;;;;;;;;;;;-6.00;99.90;;;-7.30;100.00;96584.97;5061747;28;20338;-53
2022/12/13 00:12:52;;;;;;;;;;;-6.00;99.90;;;-7.33;100.00;96570.41;5070730;28;19919;-54
2022/12/13 00:15:18;;;;;;;;;;;-6.00;99.90;;;-7.38;100.00;96561.75;5065393;28;19920;-50
2022/12/13 00:17:44;;;;;;;;;;;-6.00;99.90;;;-7.28;100.00;96578.19;5068001;28;19916;-55
2022/12/13 00:20:10;;;;;;;;;;;-6.10;99.90;;;-7.31;100.00;96580.69;5066531;28;20308;-54
2022/12/13 00:22:36;;;;;;;;;;;-6.00;99.90;;;-7.32;100.00;96582.38;5059357;28;19912;-54
2022/12/13 00:25:02;;;;;;;;;;;-6.00;99.90;;;-7.33;100.00;96580.66;5071154;28;19942;-50
2022/12/13 00:27:28;;;;;;;;;;;-6.00;99.90;;;-7.34;100.00;96585.72;5068632;28;19947;-55
2022/12/13 00:29:53;;;;;;;;;;;-6.10;99.90;;;-7.38;100.00;96579.69;5067083;28;20387;-56
2022/12/13 00:32:19;;;;;;;;;;;-6.10;99.90;;;-7.38;100.00;96578.84;5067444;28;19955;-57
2022/12/13 00:34:45;;;;;;;;;;;-6.10;99.90;;;-7.44;100.00;96583.84;5061226;28;19912;-56
2022/12/13 00:37:10;;;;;;;;;;;-6.10;99.90;;;-7.44;100.00;96578.72;5064039;28;21554;-54
2022/12/13 00:39:36;;;;;;;;;;;-6.20;99.90;;;-7.46;100.00;96580.34;5065569;28;19920;-51
2022/12/13 00:42:02;;;;;;;;;;;-6.20;99.90;;;-7.50;100.00;96575.19;5061763;28;19919;-53
2022/12/13 00:44:27;;;;;;;;;;;-6.20;99.90;;;-7.54;100.00;96575.94;5062691;28;20500;-56
2022/12/13 00:46:53;;;;;;;;;;;-6.20;99.90;;;-7.55;100.00;96570.81;5059068;28;20450;-55
2022/12/13 00:49:19;;;;;;;;;;;-6.30;99.90;;;-7.54;100.00;96572.53;5062980;28;19911;-50
2022/12/13 00:51:47;;;;;;;;;;;-6.20;99.90;;;-7.53;100.00;96570.00;5062350;28;20067;-53
2022/12/13 00:54:12;;;;;;;;;;;-6.20;99.90;;;-7.54;100.00;96555.47;5063706;28;19912;-55
2022/12/13 00:56:38;;;;;;;;;;;-6.30;99.90;;;-7.63;100.00;96536.50;5063940;28;19911;-50
2022/12/13 00:59:03;;;;;;;;;;;-6.20;99.90;;;-7.56;100.00;96546.88;5064271;28;19959;-54
2022/12/13 01:01:31;;;;;;;;;;;-6.20;99.90;;;-7.59;100.00;96544.28;5062990;28;19912;-53
2022/12/13 01:03:59;;;;;;;;;;;-6.30;99.90;;;-7.61;100.00;96545.94;5062511;28;19926;-50
2022/12/13 01:06:35;;;;;;;;;;;-6.30;99.90;;;-7.62;100.00;96531.41;5060297;28;19920;-51
2022/12/13 01:09:01;;;;;;;;;;;-6.30;99.90;;;-7.62;100.00;96541.66;5051479;28;20149;-55
2022/12/13 01:11:26;;;;;;;;;;;-6.30;99.90;;;-7.65;100.00;96536.47;5067716;28;19927;-52
2022/12/13 01:13:52;;;;;;;;;;;-6.30;99.90;;;-7.65;100.00;96536.47;5069808;28;19935;-52
2022/12/13 01:16:17;;;;;;;;;;;-6.40;99.90;;;-7.65;100.00;96531.34;5065029;28;19912;-51
2022/12/13 01:18:43;;;;;;;;;;;-6.30;99.90;;;-7.67;100.00;96531.31;5063865;28;19947;-51
2022/12/13 01:21:11;;;;;;;;;;;-6.40;99.90;;;-7.77;100.00;96521.75;5062845;28;19920;-54
2022/12/13 01:23:37;;;;;;;;;;;-6.40;99.90;;;-7.64;100.00;96547.56;5068323;28;19920;-54
2022/12/13 01:26:06;;;;;;;;;;;-6.30;99.90;;;-7.63;100.00;96555.28;5068429;28;20166;-52
2022/12/13 01:28:32;;;;;;;;;;;-6.40;99.90;;;-7.65;100.00;96556.94;5067599;28;19998;-51
2022/12/13 01:31:00;;;;;;;;;;;-6.30;99.90;;;-7.75;100.00;96526.88;5065100;28;19965;-50
2022/12/13 01:33:26;;;;;;;;;;;-6.30;99.90;;;-7.65;100.00;96551.84;5067251;28;19927;-49
2022/12/13 01:35:52;;;;;;;;;;;-6.40;99.90;;;-7.64;100.00;96547.56;5061741;28;19967;-50
2022/12/13 01:38:18;;;;;;;;;;;-6.30;99.90;;;-7.75;100.00;96534.53;5063903;28;19998;-51
2022/12/13 01:40:46;;;;;;;;;;;-6.30;99.90;;;-7.76;100.00;96527.72;5061401;28;20372;-50
2022/12/13 01:43:13;;;;;;;;;;;-6.30;99.90;;;-7.68;100.00;96534.72;5061158;28;19920;-49
2022/12/13 01:45:38;;;;;;;;;;;-6.40;99.90;;;-7.64;100.00;96542.44;5058383;28;19920;-51
2022/12/13 01:48:06;;;;;;;;;;;-6.40;99.90;;;-7.67;100.00;96541.56;5061509;28;20086;-49
2022/12/13 01:50:40;;;;;;;;;;;-6.40;99.90;;;-7.66;100.00;96532.19;5064126;28;19916;-50
2022/12/13 01:53:07;;;;;;;;;;;-6.30;99.90;;;-7.73;100.00;96527.78;5063111;28;20394;-54
2022/12/13 01:55:36;;;;;;;;;;;-6.30;99.90;;;-7.67;100.00;96544.13;5042515;28;20565;-50
2022/12/13 01:58:02;;;;;;;;;;;-6.30;99.90;;;-7.65;100.00;96541.59;5062881;28;20358;-50
2022/12/13 02:00:28;;;;;;;;;;;-6.40;99.90;;;-7.67;100.00;96536.44;5049376;28;19916;-52
2022/12/13 02:02:56;;;;;;;;;;;-6.40;99.90;;;-7.67;100.00;96533.03;5052029;28;19927;-53
2022/12/13 02:05:53;;;;;;;;;;;-6.40;99.90;;;-7.68;100.00;96531.28;5063105;28;20024;-50
2022/12/13 02:08:19;;;;;;;;;;;-6.40;99.90;;;-7.70;100.00;96532.94;5050289;28;20183;-52
2022/12/13 02:10:45;;;;;;;;;;;-6.40;99.90;;;-7.70;100.00;96518.47;5060793;28;20257;-49
2022/12/13 02:13:10;;;;;;;;;;;-6.40;99.90;;;-7.73;100.00;96525.22;5061043;28;19913;-53
2022/12/13 02:16:10;;;;;;;;;;;-6.40;99.90;;;-7.68;100.00;96524.47;5042927;28;20057;-53
2022/12/13 02:18:53;;;;;;;;;;;-6.40;99.90;;;-7.67;100.00;96521.06;5059407;28;20340;-54
2022/12/13 02:21:28;;;;;;;;;;;-6.40;99.90;;;-7.69;100.00;96511.66;5067395;28;20010;-52
2022/12/13 02:24:28;;;;;;;;;;;-6.30;99.90;;;-7.68;100.00;96516.81;5050475;28;20276;-52
2022/12/13 02:27:06;;;;;;;;;;;-6.40;99.90;;;-7.76;100.00;96513.22;5064991;28;19970;-51
2022/12/13 02:29:48;;;;;;;;;;;-6.40;99.90;;;-7.78;100.00;96506.34;5052042;28;20368;-52
2022/12/13 02:32:36;;;;;;;;;;;-6.40;99.90;;;-7.83;100.00;96511.34;5063371;28;19916;-53
2022/12/13 02:35:08;;;;;;;;;;;-6.50;99.90;;;-7.85;100.00;96513.03;5046277;28;19927;-55
2022/12/13 02:37:54;;;;;;;;;;;-6.50;99.90;;;-7.95;100.00;96504.31;5052175;28;19912;-55
2022/12/13 02:40:27;;;;;;;;;;;-6.50;99.90;;;-7.92;100.00;96517.16;5060120;28;19924;-53
2022/12/13 02:43:10;;;;;;;;;;;-6.50;99.90;;;-7.93;100.00;96514.56;5041243;28;19996;-55
2022/12/13 02:45:47;;;;;;;;;;;-6.60;99.90;;;-7.98;100.00;96506.81;5051303;28;19912;-55
2022/12/13 02:48:17;;;;;;;;;;;-6.60;99.90;;;-8.02;100.00;96504.13;5052244;28;19916;-55
2022/12/13 02:50:43;;;;;;;;;;;-6.60;99.90;;;-8.06;100.00;96501.53;5052064;28;20022;-56
2022/12/13 02:53:10;;;;;;;;;;;-6.60;99.90;;;-8.01;100.00;96503.31;5054913;28;20451;-56
2022/12/13 02:55:39;;;;;;;;;;;-6.60;99.90;;;-8.05;100.00;96504.94;5057772;28;19916;-56
2022/12/13 02:58:05;;;;;;;;;;;-6.70;99.90;;;-8.09;100.00;96513.41;5066021;28;19923;-54
2022/12/13 03:00:50;;;;;;;;;;;-6.70;99.90;;;-8.07;100.00;96511.72;5068868;28;19916;-57
2022/12/13 03:03:25;;;;;;;;;;;-6.70;99.90;;;-8.04;100.00;96498.13;5038257;28;20326;-57
2022/12/13 03:09:08;;;;;;;;;;;-6.70;99.90;;;-8.06;100.00;96503.19;5047445;28;19919;-56
2022/12/13 03:14:29;;;;;;;;;;;-6.80;99.90;;;-8.06;100.00;96486.19;5054392;28;19926;-55
2022/12/13 03:16:57;;;;;;;;;;;-6.80;99.90;;;-8.07;100.00;96483.59;5050846;28;19985;-57
2022/12/13 03:19:23;;;;;;;;;;;-6.80;99.90;;;-8.10;100.00;96478.41;5044948;28;20367;-56
2022/12/13 03:21:48;;;;;;;;;;;-6.80;99.90;;;-8.21;100.00;96462.81;5061015;28;19939;-57
2022/12/13 03:24:17;;;;;;;;;;;-6.80;99.90;;;-8.16;100.00;96470.59;5059245;28;19916;-56
2022/12/13 03:26:43;;;;;;;;;;;-6.80;99.90;;;-8.21;100.00;96465.38;5063796;28;20003;-55
2022/12/13 03:29:08;;;;;;;;;;;-6.80;99.90;;;-8.26;100.00;96472.94;5053260;28;20328;-56
2022/12/13 03:31:34;;;;;;;;;;;-6.80;99.90;;;-8.25;100.00;96481.50;5073149;28;19920;-58
2022/12/13 03:33:59;;;;;;;;;;;-6.90;99.90;;;-8.30;100.00;96477.97;5067963;28;21338;-58
2022/12/13 03:36:25;;;;;;;;;;;-6.90;99.90;;;-8.31;100.00;96474.56;5064836;28;20444;-58
2022/12/13 03:38:52;;;;;;;;;;;-7.00;99.90;;;-8.34;100.00;96477.03;5048634;28;19927;-57
2022/12/13 03:41:21;;;;;;;;;;;-7.00;99.90;;;-8.34;100.00;96478.75;5045712;28;19938;-57
2022/12/13 03:43:46;;;;;;;;;;;-6.90;99.90;;;-8.39;100.00;96472.66;5062657;28;19920;-57
2022/12/13 03:46:12;;;;;;;;;;;-6.90;99.90;;;-8.40;100.00;96471.78;5064055;28;19919;-57
2022/12/13 03:48:38;;;;;;;;;;;-7.00;99.90;;;-8.45;100.00;96458.94;5071298;28;19912;-57
2022/12/13 03:51:04;;;;;;;;;;;-7.00;99.90;;;-8.36;100.00;96473.59;5067731;28;19916;-57
2022/12/13 03:53:30;;;;;;;;;;;-7.00;99.90;;;-8.35;100.00;96471.91;5067176;28;19916;-57
2022/12/13 03:55:55;;;;;;;;;;;-7.00;99.90;;;-8.33;100.00;96463.41;5064391;28;19912;-54
2022/12/13 03:58:22;;;;;;;;;;;-6.90;99.90;;;-8.40;100.00;96456.44;5055961;28;19924;-56
2022/12/13 04:00:47;;;;;;;;;;;-6.90;99.90;;;-8.47;100.00;96431.59;5059715;28;20016;-55
2022/12/13 04:03:13;;;;;;;;;;;-6.90;99.90;;;-8.34;100.00;96456.59;5057223;28;19920;-54
2022/12/13 04:05:38;;;;;;;;;;;-6.90;99.90;;;-8.29;100.00;96449.88;5057180;28;19916;-55
2022/12/13 04:08:04;;;;;;;;;;;-6.90;99.90;;;-8.31;100.00;96454.09;5066963;28;20011;-53
2022/12/13 04:10:30;;;;;;;;;;;-6.90;99.90;;;-8.28;100.00;96456.69;5055924;28;19915;-55
2022/12/13 04:15:47;;;;;;;;;;;-6.90;99.90;;;-8.32;100.00;96460.03;5050369;28;20012;-54
2022/12/13 04:18:15;;;;;;;;;;;-6.90;99.90;;;-8.35;100.00;96446.31;5056171;28;19916;-54
2022/12/13 04:20:40;;;;;;;;;;;-6.90;99.90;;;-8.36;100.00;96453.13;5052796;28;20259;-53
2022/12/13 04:23:06;;;;;;;;;;;-6.90;99.90;;;-8.36;100.00;96455.69;5055997;28;20348;-55
2022/12/13 04:25:32;;;;;;;;;;;-6.90;99.90;;;-8.35;100.00;96457.41;5039244;28;19916;-55
2022/12/13 04:27:57;;;;;;;;;;;-7.00;99.90;;;-8.36;100.00;96454.81;5052230;28;20559;-53
2022/12/13 04:30:23;;;;;;;;;;;-6.90;99.90;;;-8.38;100.00;96456.47;5054428;28;20239;-51
2022/12/13 04:32:48;;;;;;;;;;;-7.00;99.90;;;-8.36;100.00;96454.81;5055293;28;19911;-55
2022/12/13 04:37:43;;;;;;;;;;;-6.90;99.90;;;-8.34;100.00;96453.19;5030477;28;19928;-42
2022/12/13 04:40:10;;;;;;;;;;;-7.00;99.90;;;-8.30;100.00;96453.25;5023472;28;20093;-42
2022/12/13 04:42:35;;;;;;;;;;;-7.00;99.90;;;-8.36;100.00;96453.13;5031468;28;19916;-42
2022/12/13 04:45:01;;;;;;;;;;;-6.90;99.90;;;-8.35;100.00;96454.00;5032022;28;19935;-43
2022/12/13 04:47:27;;;;;;;;;;;-6.90;99.90;;;-8.41;100.00;96453.88;5027639;28;20023;-43
2022/12/13 04:49:53;;;;;;;;;;;-6.90;99.90;;;-8.57;100.00;96420.31;5031941;28;19978;-44
2022/12/13 04:52:19;;;;;;;;;;;-6.90;99.90;;;-8.36;100.00;96450.59;5037339;28;19913;-42
2022/12/13 04:54:45;;;;;;;;;;;-6.90;99.90;;;-8.35;100.00;96452.28;5029202;28;20594;-42
2022/12/13 04:57:11;;;;;;;;;;;-7.00;99.90;;;-8.37;100.00;96446.28;5025459;28;19927;-42
2022/12/13 04:59:37;;;;;;;;;;;-7.00;99.90;;;-8.34;100.00;96450.63;5021111;28;20515;-42
2022/12/13 05:02:05;;;;;;;;;;;-7.00;99.90;;;-8.51;100.00;96429.81;5034381;28;19913;-42
2022/12/13 05:04:30;;;;;;;;;;;-7.00;99.90;;;-8.39;100.00;96447.09;5028644;28;19916;-43
2022/12/13 05:06:56;;;;;;;;;;;-7.00;99.90;;;-8.47;100.00;96434.16;5037043;28;20784;-42
2022/12/13 05:09:22;;;;;;;;;;;-7.00;99.90;;;-8.47;100.00;96441.81;5038396;28;20830;-42
2022/12/13 05:11:48;;;;;;;;;;;-7.00;99.90;;;-8.43;100.00;96446.19;5036850;28;19969;-42
2022/12/13 05:14:14;;;;;;;;;;;-7.10;99.90;;;-8.46;100.00;96438.44;5025697;28;20742;-42
2022/12/13 05:16:39;;;;;;;;;;;-7.10;99.90;;;-8.48;100.00;96453.75;5031327;28;20366;-42
2022/12/13 05:19:05;;;;;;;;;;;-7.10;99.90;;;-8.48;100.00;96452.91;5024944;28;19921;-42
2022/12/13 05:21:33;;;;;;;;;;;-7.10;99.90;;;-8.71;100.00;96420.00;5037531;28;20031;-43
2022/12/13 05:24:01;;;;;;;;;;;-7.10;99.90;;;-8.54;100.00;96442.53;5040891;28;20451;-43
2022/12/13 05:26:27;;;;;;;;;;;-7.20;99.90;;;-8.54;100.00;96448.53;5024048;28;19963;-44
2022/12/13 05:28:55;;;;;;;;;;;-7.10;99.90;;;-8.58;100.00;96435.63;5030981;28;20260;-43
2022/12/13 05:31:20;;;;;;;;;;;-7.20;99.90;;;-8.71;100.00;96414.06;5031469;28;20368;-45
2022/12/13 05:33:46;;;;;;;;;;;-7.20;99.90;;;-8.61;100.00;96444.09;5031490;28;20169;-43
2022/12/13 05:36:12;;;;;;;;;;;-7.20;99.90;;;-8.61;100.00;96443.22;5039944;28;20194;-43
2022/12/13 05:38:37;;;;;;;;;;;-7.20;99.90;;;-8.60;100.00;96447.50;5038248;28;19919;-44
2022/12/13 05:41:03;;;;;;;;;;;-7.20;99.90;;;-8.65;100.00;96439.72;5040153;28;19943;-44
2022/12/13 05:43:29;;;;;;;;;;;-7.20;99.90;;;-8.64;100.00;96439.78;5031182;28;20235;-43
2022/12/13 05:45:54;;;;;;;;;;;-7.20;99.90;;;-8.61;100.00;96430.44;5030865;28;20280;-43
2022/12/13 05:48:20;;;;;;;;;;;-7.20;99.90;;;-8.67;100.00;96426.06;5038796;28;20171;-44
2022/12/13 05:50:45;;;;;;;;;;;-7.30;99.90;;;-8.65;100.00;96430.41;5043266;28;19916;-44
2022/12/13 05:53:11;;;;;;;;;;;-7.20;99.90;;;-8.63;100.00;96435.53;5036106;28;19927;-42
2022/12/13 05:55:37;;;;;;;;;;;-7.20;99.90;;;-8.64;100.00;96427.00;5043924;28;19951;-42
2022/12/13 05:58:03;;;;;;;;;;;-7.20;99.90;;;-8.62;100.00;96432.13;5045657;28;19919;-43
2022/12/13 06:00:29;;;;;;;;;;;-7.20;99.90;;;-8.69;100.00;96417.50;5039412;28;20852;-43
2022/12/13 06:02:55;;;;;;;;;;;-7.20;99.90;;;-8.62;100.00;96421.06;5042978;28;19916;-43
2022/12/13 06:05:20;;;;;;;;;;;-7.20;99.90;;;-8.68;100.00;96416.69;5046724;28;19931;-42
2022/12/13 06:07:46;;;;;;;;;;;-7.20;99.90;;;-8.63;100.00;96422.75;5045326;28;19916;-41
2022/12/13 06:10:12;;;;;;;;;;;-7.20;99.90;;;-8.62;100.00;96433.84;5041725;28;19920;-42
2022/12/13 06:12:38;;;;;;;;;;;-7.20;99.90;;;-8.66;100.00;96420.97;5036850;28;19971;-43
2022/12/13 06:15:05;;;;;;;;;;;-7.20;99.90;;;-8.64;100.00;96421.88;5033572;28;19924;-43
2022/12/13 06:17:31;;;;;;;;;;;-7.20;99.90;;;-8.62;100.00;96427.03;5025535;28;19963;-41
2022/12/13 06:19:57;;;;;;;;;;;-7.20;99.90;;;-8.62;100.00;96423.63;5042406;28;19931;-43
2022/12/13 06:22:23;;;;;;;;;;;-7.20;99.90;;;-8.61;100.00;96431.31;5041072;28;20390;-42
2022/12/13 06:24:48;;;;;;;;;;;-7.20;99.90;;;-8.60;100.00;96425.38;5038884;28;19917;-41
2022/12/13 06:27:14;;;;;;;;;;;-7.10;99.90;;;-8.60;100.00;96432.19;5033208;28;20381;-41
2022/12/13 06:29:39;;;;;;;;;;;-7.10;99.90;;;-8.56;100.00;96431.41;5040926;28;19944;-41
2022/12/13 06:32:05;;;;;;;;;;;-7.10;99.90;;;-8.61;100.00;96413.44;5037908;28;19919;-41
2022/12/13 06:34:33;;;;;;;;;;;-7.10;99.90;;;-8.60;100.00;96417.69;5048294;28;19935;-41
2022/12/13 06:36:59;;;;;;;;;;;-7.20;99.90;;;-8.68;100.00;96414.97;5040691;28;19990;-41
2022/12/13 06:39:25;;;;;;;;;;;-7.10;99.90;;;-8.65;100.00;96430.41;5028713;28;19916;-41
2022/12/13 06:41:50;;;;;;;;;;;-7.20;99.90;;;-8.71;100.00;96416.59;5052161;28;20490;-41
2022/12/13 06:44:16;;;;;;;;;;;-7.20;99.90;;;-8.74;100.00;96411.41;5050445;28;19963;-42
2022/12/13 06:46:41;;;;;;;;;;;-7.20;99.90;;;-8.69;100.00;96426.03;5044462;28;19952;-42
2022/12/13 06:49:07;;;;;;;;;;;-7.20;99.90;;;-8.73;100.00;96416.56;5048874;28;19916;-42
2022/12/13 06:51:33;;;;;;;;;;;-7.20;99.90;;;-8.71;100.00;96430.25;5048446;28;19999;-42
2022/12/13 06:54:01;;;;;;;;;;;-7.20;99.90;;;-8.76;100.00;96430.97;5047018;28;20307;-42
2022/12/13 06:56:27;;;;;;;;;;;-7.20;99.90;;;-8.68;100.00;96444.81;5040779;28;19931;-41
2022/12/13 06:58:52;;;;;;;;;;;-7.20;99.90;;;-8.69;100.00;96449.03;5049699;28;19912;-42
2022/12/13 07:01:18;;;;;;;;;;;-7.20;99.90;;;-8.67;100.00;96441.41;5049150;28;19927;-42
2022/12/13 07:03:44;;;;;;;;;;;-7.20;99.90;;;-8.73;100.00;96437.00;5044203;28;19916;-42
2022/12/13 07:06:14;;;;;;;;;;;-7.20;99.90;;;-8.67;100.00;96446.50;5036167;28;19963;-41
2022/12/13 07:08:41;;;;;;;;;;;-7.20;99.90;;;-8.66;100.00;96446.53;5036213;28;19920;-41
2022/12/13 07:11:07;;;;;;;;;;;-7.20;99.90;;;-8.65;100.00;96449.97;5028631;28;20420;-42
2022/12/13 07:13:33;;;;;;;;;;;-7.20;99.90;;;-8.66;100.00;96454.22;5026885;28;19952;-41
2022/12/13 07:15:59;;;;;;;;;;;-7.20;99.90;;;-8.61;100.00;96459.44;5037331;28;20045;-40
2022/12/13 07:18:25;;;;;;;;;;;-7.20;99.90;;;-8.60;100.00;96463.72;5034936;28;20533;-41
2022/12/13 07:20:51;;;;;;;;;;;-7.20;99.90;;;-8.59;100.00;96452.66;5033894;28;20447;-41
2022/12/13 07:23:16;;;;;;;;;;;-7.10;99.90;;;-8.53;100.00;96454.50;5026973;28;19956;-41
2022/12/13 07:25:50;;;;;;;;;;;-7.10;99.90;;;-8.43;100.00;96451.31;5036234;28;19990;-41
2022/12/13 07:28:15;;;;;;;;;;;-7.00;99.90;;;-8.42;100.00;96444.50;5042802;28;19966;-41
2022/12/13 07:30:41;;;;;;;;;;;-7.00;99.90;;;-8.36;100.00;96450.59;5034976;28;20642;-41
2022/12/13 07:33:07;;;;;;;;;;;-6.90;99.90;;;-8.32;100.00;96448.94;5030641;28;19916;-41
2022/12/13 07:35:33;;;;;;;;;;;-6.90;99.90;;;-8.37;100.00;96448.84;5030297;28;19943;-41
2022/12/13 07:37:59;;;;;;;;;;;-6.90;99.90;;;-8.31;100.00;96455.78;5043083;28;19920;-41
2022/12/13 07:40:24;;;;;;;;;;;-6.80;99.90;;;-8.28;100.00;96456.69;5045812;28;20324;-41
2022/12/13 07:42:51;;;;;;;;;;;-6.80;99.90;;;-8.26;100.00;96457.59;5044688;28;19988;-41
2022/12/13 07:45:17;;;;;;;;;;;-6.80;99.90;;;-8.38;100.00;96434.34;5043208;28;20019;-41
2022/12/13 07:47:43;;;;;;;;;;;-6.80;99.90;;;-8.24;100.00;96470.44;5040535;28;19935;-41
2022/12/13 07:50:09;;;;;;;;;;;-6.80;99.90;;;-8.32;100.00;96443.84;5044063;28;20360;-41
2022/12/13 07:52:34;;;;;;;;;;;-6.70;99.90;;;-8.17;100.00;96466.31;5044472;28;19912;-41
2022/12/13 07:55:01;;;;;;;;;;;-6.70;99.90;;;-8.09;100.00;96472.47;5047648;28;20285;-41
2022/12/13 07:57:26;;;;;;;;;;;-6.60;99.90;;;-8.04;100.00;96475.09;5048871;28;19923;-41
2022/12/13 07:59:52;;;;;;;;;;;-6.60;99.90;;;-8.00;100.00;96480.31;5037334;28;19916;-41
2022/12/13 08:02:18;;;;;;;;;;;-6.60;99.90;;;-7.97;100.00;96471.84;5053962;28;19912;-41
2022/12/13 08:04:43;;;;;;;;;;;-6.50;99.90;;;-7.88;100.00;96482.25;5048573;28;19954;-41
2022/12/13 08:07:10;;;;;;;;;;;-6.50;99.90;;;-7.85;100.00;96481.47;5033502;28;19967;-42
2022/12/13 08:09:35;;;;;;;;;;;-6.40;99.90;;;-7.73;100.00;96481.72;5048797;28;20011;-43
2022/12/13 08:12:01;;;;;;;;;;;-6.30;99.90;;;-7.67;100.00;96477.53;5049095;28;20348;-42
2022/12/13 08:14:27;;;;;;;;;;;-6.30;99.90;;;-7.56;100.00;96485.44;5048787;28;19924;-42
2022/12/13 08:16:53;;;;;;;;;;;-6.20;99.90;;;-7.48;100.00;96480.47;5042889;28;20436;-42
2022/12/13 08:19:18;;;;;;;;;;;-6.10;99.90;;;-7.41;100.00;96479.75;5048849;28;19922;-42
2022/12/13 08:21:44;;;;;;;;;;;-6.00;99.90;;;-7.31;100.00;96481.63;5033565;28;20073;-41
2022/12/13 08:24:10;;;;;;;;;;;-6.00;99.90;;;-7.25;100.00;96480.00;5034108;28;19954;-41
2022/12/13 08:26:35;;;;;;;;;;;-5.90;99.90;;;-7.23;100.00;96473.22;5046980;28;19923;-41
2022/12/13 08:29:02;;;;;;;;;;;-5.90;99.90;;;-7.15;100.00;96480.19;5053501;28;20376;-41
2022/12/13 08:31:27;;;;;;;;;;;-5.80;99.90;;;-7.13;100.00;96475.97;5043741;28;19917;-41
2022/12/13 08:33:53;;;;;;;;;;;-5.70;99.90;;;-7.11;100.00;96481.97;5052334;28;19958;-41
2022/12/13 08:36:21;;;;;;;;;;;-5.70;99.90;;;-7.06;100.00;96483.78;5051043;28;19918;-41
2022/12/13 08:38:47;;;;;;;;;;;-5.70;99.90;;;-7.04;100.00;96485.50;5036389;28;19923;-41
2022/12/13 08:41:13;;;;;;;;;;;-5.70;99.90;;;-7.04;100.00;96467.56;5047506;28;19917;-41
2022/12/13 08:43:38;;;;;;;;;;;-5.60;99.90;;;-6.98;100.00;96466.81;5045595;28;20041;-41
2022/12/13 08:46:05;;;;;;;;;;;-5.60;99.90;;;-6.89;100.00;96481.47;5039172;28;19921;-41
2022/12/13 08:48:30;;;;;;;;;;;-5.60;99.90;;;-6.94;100.00;96471.16;5044713;28;20287;-41
2022/12/13 08:51:04;;;;;;;;;;;-5.50;99.90;;;-6.82;100.00;96481.63;5046541;28;20441;-41
2022/12/13 08:53:30;;;;;;;;;;;-5.50;99.90;;;-6.78;100.00;96493.63;5033608;28;19925;-41
2022/12/13 08:56:00;;;;;;;;;;;-5.40;99.90;;;-6.76;100.00;96497.09;5050580;28;19912;-41
2022/12/13 08:58:26;;;;;;;;;;;-5.40;99.90;;;-6.73;100.00;96489.44;5046688;28;19925;-41
2022/12/13 09:00:51;;;;;;;;;;;-5.40;99.90;;;-6.67;100.00;96485.25;5043089;28;19946;-41
2022/12/13 09:03:17;;;;;;;;;;;-5.30;99.90;;;-6.61;100.00;96485.34;5036997;28;19964;-44
2022/12/13 09:05:43;;;;;;;;;;;-5.20;99.90;;;-6.52;100.00;96481.19;5041863;28;19917;-46
2022/12/13 09:08:08;;;;;;;;;;;-5.20;99.90;;;-6.44;100.00;96476.22;5050123;28;19999;-45
2022/12/13 09:10:34;;;;;;;;;;;-5.10;99.90;;;-6.25;100.00;96479.88;5052590;28;20012;-45
2022/12/13 09:13:00;;;;;;;;;;;-5.00;99.90;;;-6.21;100.00;96476.53;5047102;28;20347;-45
2022/12/13 09:15:27;;;;;;;;;;;-4.90;99.90;;;-6.12;100.00;96480.03;5045386;28;19974;-45
2022/12/13 09:17:53;;;;;;;;;;;-4.80;99.90;;;-6.10;100.00;96476.66;5027932;28;19999;-45
2022/12/13 09:20:18;;;;;;;;;;;-4.80;99.90;;;-6.00;100.00;96475.06;5051591;28;20057;-45
2022/12/13 09:22:44;;;;;;;;;;;-4.70;99.90;;;-5.90;100.00;96468.31;5049019;28;20447;-46
2022/12/13 09:25:10;;;;;;;;;;;-4.60;99.90;;;-5.87;100.00;96482.03;5039841;28;19919;-46
2022/12/13 09:27:35;;;;;;;;;;;-4.60;99.90;;;-5.95;100.00;96453.72;5047088;28;19954;-44
2022/12/13 09:30:01;;;;;;;;;;;-4.50;99.90;;;-5.71;100.00;96475.38;5044847;28;19908;-46
2022/12/13 09:32:27;;;;;;;;;;;-4.40;99.90;;;-5.66;100.00;96468.59;5048138;28;20395;-46
2022/12/13 09:34:53;;;;;;;;;;;-4.40;99.90;;;-5.57;100.00;96468.69;5053842;28;19925;-46
2022/12/13 09:37:18;;;;;;;;;;;-4.30;99.90;;;-5.56;100.00;96467.88;5057635;28;20015;-46
2022/12/13 09:39:46;;;;;;;;;;;-4.20;99.90;;;-5.45;100.00;96475.69;5047164;28;20239;-46
2022/12/13 09:42:27;;;;;;;;;;;-4.10;99.90;;;-5.35;100.00;96473.22;5043847;28;20063;-46
2022/12/13 09:44:59;;;;;;;;;;;-4.10;99.90;;;-5.26;100.00;96483.59;5048478;28;19917;-49
2022/12/13 09:47:32;;;;;;;;;;;-4.00;99.90;;;-5.15;100.00;96483.69;5045919;28;19967;-49
2022/12/13 09:50:00;;;;;;;;;;;-3.90;99.90;;;-5.27;100.00;96469.03;5028372;28;20256;-46
2022/12/13 09:52:30;;;;;;;;;;;-3.80;99.90;;;-5.16;100.00;96471.72;5039241;28;19920;-47
2022/12/13 09:54:56;;;;;;;;;;;-3.80;99.90;;;-5.10;100.00;96485.47;5052577;28;19924;-48
2022/12/13 09:57:27;;;;;;;;;;;-3.80;99.90;;;-5.12;100.00;96483.72;5040042;28;19945;-47
2022/12/13 09:59:53;;;;;;;;;;;-3.80;99.90;;;-5.33;100.00;96453.53;5036391;28;19970;-49
2022/12/13 10:02:27;;;;;;;;;;;-3.80;99.90;;;-5.15;100.00;96478.56;5053210;28;19947;-48
2022/12/13 10:04:56;;;;;;;;;;;-3.80;99.90;;;-5.05;100.00;96475.22;5037518;28;19952;-49
2022/12/13 10:07:23;;;;;;;;;;;-3.80;99.90;;;-5.03;100.00;96476.94;5033545;28;19927;-48
2022/12/13 10:10:02;;;;;;;;;;;-3.70;99.90;;;-4.95;100.00;96479.63;5038226;28;20360;-49
2022/12/13 10:12:28;;;;;;;;;;;-3.70;99.90;;;-4.87;100.00;96469.38;5041232;28;19924;-47
2022/12/13 10:14:58;;;;;;;;;;;-3.60;99.90;;;-4.87;100.00;96462.53;5030661;28;19920;-50
2022/12/13 10:17:30;;;;;;;;;;;-3.60;99.90;;;-4.77;100.00;96460.03;5046027;28;19920;-49
2022/12/13 10:19:56;;;;;;;;;;;-3.50;99.90;;;-4.75;100.00;96459.19;5029401;28;19959;-47
2022/12/13 10:22:22;;;;;;;;;;;-3.50;99.90;;;-4.72;100.00;96466.06;5048563;28;20337;-51
2022/12/13 10:24:53;;;;;;;;;;;-3.50;99.90;;;-4.69;100.00;96459.22;5050172;28;19916;-50
2022/12/13 10:27:29;;;;;;;;;;;-3.40;99.90;;;-4.67;100.00;96459.25;5042263;28;19927;-49
2022/12/13 10:29:56;;;;;;;;;;;-3.40;99.90;;;-4.62;100.00;96463.56;5030783;28;20518;-50
2022/12/13 10:32:22;;;;;;;;;;;-3.40;99.90;;;-4.60;100.00;96458.44;5044904;28;20131;-49
2022/12/13 10:34:48;;;;;;;;;;;-3.30;99.90;;;-4.58;100.00;96451.59;5052855;28;19966;-50
2022/12/13 10:37:22;;;;;;;;;;;-3.30;99.90;;;-4.57;100.00;96455.06;5076929;22;20014;-47
2022/12/13 10:39:49;;;;;;;;;;;-3.30;99.90;;;-4.50;100.00;96441.38;5065871;28;20403;-48
2022/12/13 10:42:17;;;;;;;;;;;-3.20;99.90;;;-4.48;100.00;96437.09;5055093;28;20277;-46
2022/12/13 10:44:43;;;;;;;;;;;-3.20;99.90;;;-4.42;100.00;96442.25;5069680;28;19916;-46
2022/12/13 10:47:08;;;;;;;;;;;-3.10;99.90;;;-4.32;100.00;96435.47;5060001;28;19920;-46
2022/12/13 10:49:56;;;;;;;;;;;-3.00;99.90;;;-4.30;100.00;96436.34;5054758;28;20522;-46
2022/12/13 10:52:37;;;;;;;;;;;-3.00;99.90;;;-4.19;100.00;96429.53;5050389;28;19951;-49
2022/12/13 10:55:20;;;;;;;;;;;-2.90;99.90;;;-4.18;100.00;96423.53;5030493;28;20415;-49
2022/12/13 10:57:51;;;;;;;;;;;-2.90;99.90;;;-4.15;100.00;96420.09;5027273;28;20032;-48
2022/12/13 11:00:34;;;;;;;;;;;-2.90;99.90;;;-4.13;100.00;96423.53;5043511;28;19921;-47
2022/12/13 11:03:00;;;;;;;;;;;-2.80;99.90;;;-4.13;100.00;96421.81;5051693;28;19938;-48
2022/12/13 11:05:28;;;;;;;;;;;-2.80;99.90;;;-4.06;100.00;96427.88;5055571;28;19912;-48
2022/12/13 11:07:56;;;;;;;;;;;-2.80;99.90;;;-3.96;100.00;96427.06;5049804;28;19921;-51
2022/12/13 11:10:22;;;;;;;;;;;-2.70;99.90;;;-3.81;100.00;96430.56;5048407;28;19916;-48
2022/12/13 11:12:48;;;;;;;;;;;-2.60;99.90;;;-3.76;100.00;96427.16;5053420;28;20080;-52
2022/12/13 11:15:18;;;;;;;;;;;-2.50;99.90;;;-3.78;100.00;96400.53;5048689;28;19913;-52
2022/12/13 11:17:50;;;;;;;;;;;-2.40;99.90;;;-3.56;100.00;96421.19;5039230;28;19912;-48
2022/12/13 11:20:21;;;;;;;;;;;-2.30;99.90;;;-3.59;100.00;96427.19;5059050;28;20011;-49
2022/12/13 11:22:48;;;;;;;;;;;-2.30;99.90;;;-3.51;100.00;96416.91;5034344;28;20368;-49